Time;durP1;ratioP1;P1;durP2;ratioP2;P2;SDS_P1;SDS_P2;PMS_P1;PMS_P2;Temp;Humidity;BMP_temperature;BMP_pressure;BME280_temperature;BME280_humidity;BME280_pressure;Samples;Min_cycle;Max_cycle;Signal;HPM_P1;HPM_P2
2023/03/28 00:01:51;;;;;;;32.40;9.20;;;;;;;1.42;55.88;98509.70;67598;1281;1018795;-59
2023/03/28 00:04:53;;;;;;;34.70;9.80;;;;;;;1.26;56.17;98508.96;67662;1281;1016588;-60
2023/03/28 00:07:56;;;;;;;34.30;10.50;;;;;;;1.22;56.20;98510.45;67630;1281;1016439;-60
2023/03/28 00:10:59;;;;;;;34.60;9.20;;;;;;;1.23;56.34;98510.45;67590;1281;1016425;-60
2023/03/28 00:14:02;;;;;;;33.00;9.80;;;;;;;1.24;56.36;98506.78;67623;1281;1016447;-60
2023/03/28 00:17:06;;;;;;;33.30;10.00;;;;;;;1.32;56.10;98507.08;67593;1281;1016942;-60
2023/03/28 00:20:09;;;;;;;30.00;8.80;;;;;;;1.34;55.85;98512.00;67610;1281;1016047;-61
2023/03/28 00:23:11;;;;;;;27.40;8.40;;;;;;;1.32;56.11;98510.19;67647;1281;1016154;-62
2023/03/28 00:26:14;;;;;;;28.70;8.40;;;;;;;1.33;55.95;98509.95;67636;1281;1016384;-61
2023/03/28 00:29:19;;;;;;;34.90;10.30;;;;;;;1.29;56.07;98514.39;67628;1281;1016556;-60
2023/03/28 00:32:22;;;;;;;35.90;10.90;;;;;;;1.44;55.94;98512.41;67660;1280;1016785;-60
2023/03/28 00:35:24;;;;;;;35.50;11.90;;;;;;;1.61;55.44;98503.30;67623;1281;1016845;-62
2023/03/28 00:38:27;;;;;;;38.40;10.90;;;;;;;1.66;55.42;98494.54;67555;1281;1016105;-61
2023/03/28 00:41:31;;;;;;;36.90;11.00;;;;;;;1.70;55.45;98486.66;67668;1281;1017486;-60
2023/03/28 00:44:33;;;;;;;36.00;10.20;;;;;;;1.69;54.97;98482.53;67579;1281;1016391;-62
2023/03/28 00:47:37;;;;;;;35.50;9.30;;;;;;;1.71;55.33;98484.88;67598;1281;1016450;-60
2023/03/28 00:50:39;;;;;;;32.80;10.60;;;;;;;1.77;54.89;98486.27;67627;1281;1016819;-60
2023/03/28 00:53:42;;;;;;;38.10;11.10;;;;;;;1.85;54.80;98487.08;67597;1281;1016355;-61
2023/03/28 00:56:44;;;;;;;55.50;21.30;;;;;;;1.94;54.81;98488.52;67660;1281;1016555;-60
2023/03/28 00:59:47;;;;;;;44.20;13.80;;;;;;;2.04;54.49;98498.55;67647;1281;1016419;-60
2023/03/28 01:02:51;;;;;;;33.80;10.20;;;;;;;1.85;54.27;98504.13;67585;1281;1016366;-60
2023/03/28 01:05:53;;;;;;;33.90;10.90;;;;;;;1.57;55.03;98512.02;67600;1281;1016291;-60
2023/03/28 01:08:56;;;;;;;33.90;10.90;;;;;;;1.35;55.49;98505.61;67605;1281;1016470;-60
2023/03/28 01:11:58;;;;;;;39.80;12.60;;;;;;;1.31;55.47;98506.39;67579;1281;1016262;-60
2023/03/28 01:15:00;;;;;;;43.10;13.10;;;;;;;1.36;55.53;98506.11;67627;1281;1018146;-61
2023/03/28 01:18:09;;;;;;;42.50;12.70;;;;;;;1.30;55.56;98506.09;67662;1281;1016576;-61
2023/03/28 01:21:12;;;;;;;43.30;13.30;;;;;;;1.41;55.49;98501.81;65308;1281;5371112;-60
2023/03/28 01:24:14;;;;;;;38.20;12.40;;;;;;;1.46;55.49;98500.29;67648;1281;1016378;-61
2023/03/28 01:27:17;;;;;;;35.60;10.70;;;;;;;1.50;55.20;98492.44;67633;1281;1016289;-60
2023/03/28 01:30:19;;;;;;;;;;;;;;;1.58;55.04;98494.95;67652;1281;1016236;-60
2023/03/28 01:33:22;;;;;;;37.60;11.30;;;;;;;1.66;55.04;98494.70;67589;1281;1016415;-60
2023/03/28 01:36:24;;;;;;;37.20;12.50;;;;;;;1.73;54.78;98488.98;67633;1281;1016296;-60
2023/03/28 01:39:27;;;;;;;36.50;11.70;;;;;;;1.73;54.89;98480.70;67639;1281;1016385;-60
2023/03/28 01:42:29;;;;;;;;;;;;;;;1.70;54.90;98480.61;67570;1281;1016470;-61
2023/03/28 01:45:32;;;;;;;33.60;10.60;;;;;;;1.65;54.80;98480.59;67581;1281;1016125;-61
2023/03/28 01:48:34;;;;;;;36.70;11.40;;;;;;;1.59;54.81;98486.13;67635;1281;1016158;-61
2023/03/28 01:51:37;;;;;;;37.90;11.30;;;;;;;1.42;55.01;98484.22;67618;1281;1016401;-61
2023/03/28 01:54:42;;;;;;;51.40;14.90;;;;;;;1.22;55.45;98491.48;67621;1281;1016197;-60
2023/03/28 01:57:44;;;;;;;60.90;17.50;;;;;;;1.00;56.46;98492.13;67611;1281;1016354;-60
2023/03/28 02:00:47;;;;;;;;;;;;;;;0.83;57.12;98496.02;67667;1281;1016399;-60
2023/03/28 02:03:50;;;;;;;;;;;;;;;0.78;57.30;98492.17;67571;1281;1016564;-60
2023/03/28 02:06:52;;;;;;;58.50;17.20;;;;;;;0.76;57.20;98487.75;67615;1281;1016317;-60
2023/03/28 02:09:55;;;;;;;;;;;;;;;0.75;57.09;98490.89;67640;1281;1016415;-62
2023/03/28 02:12:57;;;;;;;63.60;18.20;;;;;;;0.77;57.03;98485.33;67643;1281;1016489;-60
2023/03/28 02:16:00;;;;;;;49.30;14.10;;;;;;;0.81;56.67;98477.99;67615;1281;1016121;-60
2023/03/28 02:19:02;;;;;;;39.70;11.60;;;;;;;0.84;56.58;98481.53;67604;1281;1015768;-61
2023/03/28 02:22:05;;;;;;;33.40;10.40;;;;;;;0.87;56.58;98477.50;67615;1281;1016320;-60
2023/03/28 02:25:07;;;;;;;40.50;11.80;;;;;;;0.82;56.66;98470.73;67633;1281;1016793;-61
2023/03/28 02:28:10;;;;;;;35.10;11.10;;;;;;;0.87;56.71;98470.08;67584;1281;1016540;-60
2023/03/28 02:31:13;;;;;;;;;;;;;;;0.92;56.66;98464.61;67594;1281;1018703;-60
2023/03/28 02:34:15;;;;;;;38.10;10.40;;;;;;;0.91;56.64;98458.45;67609;1281;1016510;-60
2023/03/28 02:37:18;;;;;;;33.10;10.60;;;;;;;0.95;56.63;98454.70;67560;1281;1016531;-61
2023/03/28 02:40:20;;;;;;;34.40;10.70;;;;;;;1.01;56.53;98452.99;67564;1281;1016305;-60
2023/03/28 02:43:23;;;;;;;32.30;10.70;;;;;;;1.03;56.42;98452.94;67630;1281;1016326;-61
2023/03/28 02:46:25;;;;;;;33.90;10.90;;;;;;;1.15;56.22;98450.54;67648;1281;1016467;-60
2023/03/28 02:49:27;;;;;;;32.90;11.00;;;;;;;1.15;56.00;98452.43;67614;1281;1016018;-60
2023/03/28 02:52:35;;;;;;;34.60;12.10;;;;;;;1.00;56.06;98449.23;67603;1281;1016315;-60
2023/03/28 02:55:38;;;;;;;36.00;11.90;;;;;;;0.96;56.26;98448.83;67607;1281;1016391;-59
2023/03/28 02:58:40;;;;;;;37.80;12.50;;;;;;;0.92;56.36;98449.30;67583;1281;1016766;-62
2023/03/28 03:01:43;;;;;;;36.40;12.20;;;;;;;0.86;56.63;98445.67;67598;1281;1016355;-60
2023/03/28 03:04:46;;;;;;;38.40;11.10;;;;;;;0.87;56.65;98439.42;67641;1281;1016169;-62
2023/03/28 03:07:49;;;;;;;35.90;11.40;;;;;;;1.01;56.54;98432.16;67583;1281;1015978;-60
2023/03/28 03:10:51;;;;;;;;;;;;;;;1.17;56.57;98436.17;67603;1281;1016493;-60
2023/03/28 03:13:53;;;;;;;33.40;11.00;;;;;;;1.21;56.36;98438.30;67641;1281;1016504;-60
2023/03/28 03:16:56;;;;;;;43.10;12.10;;;;;;;1.20;56.48;98434.54;67634;1281;1016469;-61
2023/03/28 03:20:05;;;;;;;35.40;12.00;;;;;;;1.26;57.39;98431.09;67619;1281;1018977;-60
2023/03/28 03:23:07;;;;;;;36.90;11.30;;;;;;;1.38;57.21;98430.39;67589;1281;1016577;-61
2023/03/28 03:26:10;;;;;;;39.40;11.80;;;;;;;1.41;57.04;98434.63;67603;1281;1016410;-62
2023/03/28 03:29:12;;;;;;;38.30;11.60;;;;;;;1.39;57.20;98439.16;67643;1281;1015646;-61
2023/03/28 03:32:14;;;;;;;32.80;10.10;;;;;;;1.38;57.66;98437.82;67626;1281;1016577;-61
2023/03/28 03:35:18;;;;;;;31.20;9.70;;;;;;;1.36;58.09;98437.84;67599;1281;1016401;-61
2023/03/28 03:38:21;;;;;;;32.10;9.30;;;;;;;1.46;58.19;98425.17;67605;1281;1018792;-61
2023/03/28 03:41:23;;;;;;;33.30;9.90;;;;;;;1.53;58.03;98430.98;67588;1281;1016004;-60
2023/03/28 03:44:25;;;;;;;28.90;9.40;;;;;;;1.59;58.11;98429.23;67587;1281;1016308;-62
2023/03/28 03:47:28;;;;;;;31.90;9.60;;;;;;;1.66;58.29;98433.16;67628;1281;1018835;-61
2023/03/28 03:50:30;;;;;;;30.70;9.80;;;;;;;1.79;58.41;98428.80;67625;1281;1018816;-61
2023/03/28 03:53:33;;;;;;;35.30;9.60;;;;;;;1.89;58.43;98426.41;67550;1281;1015924;-60
2023/03/28 03:56:35;;;;;;;29.80;9.00;;;;;;;2.00;58.69;98427.98;67564;1281;1016354;-62
2023/03/28 03:59:38;;;;;;;31.90;9.00;;;;;;;2.01;59.02;98427.77;67595;1281;1018401;-60
2023/03/28 04:02:40;;;;;;;31.80;9.60;;;;;;;1.96;59.95;98428.10;67588;1281;1016400;-61
2023/03/28 04:05:42;;;;;;;29.00;8.80;;;;;;;2.01;59.93;98428.80;67614;1281;1016427;-61
2023/03/28 04:08:45;;;;;;;27.70;8.10;;;;;;;2.01;60.58;98426.20;67596;1281;1016351;-61
2023/03/28 04:11:47;;;;;;;;;;;;;;;2.08;60.79;98424.77;67585;1281;1016248;-61
2023/03/28 04:14:50;;;;;;;28.40;8.30;;;;;;;2.08;61.13;98426.83;67616;1279;1016050;-60
2023/03/28 04:17:55;;;;;;;29.40;8.80;;;;;;;2.11;61.72;98427.62;67580;1281;1016620;-61
2023/03/28 04:20:58;;;;;;;27.80;7.60;;;;;;;2.18;62.06;98433.59;67577;1281;1018059;-60
2023/03/28 04:24:01;;;;;;;26.20;7.20;;;;;;;2.20;62.51;98432.98;67623;1281;1016301;-60
2023/03/28 04:27:04;;;;;;;24.10;7.10;;;;;;;2.27;63.17;98434.68;67594;1281;1016433;-61
2023/03/28 04:30:08;;;;;;;25.60;7.60;;;;;;;2.26;64.28;98436.61;67602;1281;1016493;-61
2023/03/28 04:33:10;;;;;;;25.50;7.50;;;;;;;2.18;66.02;98437.20;67581;1281;1016057;-60
2023/03/28 04:36:15;;;;;;;25.00;7.00;;;;;;;2.23;66.69;98437.55;67663;1281;1015944;-60
2023/03/28 04:39:20;;;;;;;22.70;6.80;;;;;;;2.31;67.21;98436.09;67618;1281;1016327;-60
2023/03/28 04:42:23;;;;;;;25.00;7.30;;;;;;;2.28;68.11;98430.16;67624;1281;1017622;-61
2023/03/28 04:45:25;;;;;;;23.80;7.20;;;;;;;2.22;69.57;98428.47;67607;1281;1016247;-60
2023/03/28 04:48:28;;;;;;;23.90;7.00;;;;;;;2.23;69.99;98424.61;67588;1281;1016425;-60
2023/03/28 04:51:30;;;;;;;27.50;7.40;;;;;;;2.23;70.22;98426.15;67584;1281;1015961;-61
2023/03/28 04:54:32;;;;;;;23.80;6.80;;;;;;;2.29;70.62;98428.89;67619;1281;1016431;-60
2023/03/28 04:57:37;;;;;;;24.30;7.60;;;;;;;2.43;70.57;98426.17;67610;1281;1016137;-60
2023/03/28 05:00:39;;;;;;;25.80;7.70;;;;;;;2.48;71.30;98433.63;67626;1281;1016395;-60
2023/03/28 05:03:41;;;;;;;23.90;7.00;;;;;;;2.57;71.51;98433.30;67565;1281;1016500;-60
2023/03/28 05:06:44;;;;;;;22.80;7.40;;;;;;;2.68;71.98;98432.42;67579;1281;1016348;-62
2023/03/28 05:09:47;;;;;;;20.70;6.20;;;;;;;2.68;72.05;98437.06;67583;1258;1018940;-61
2023/03/28 05:12:49;;;;;;;23.70;7.70;;;;;;;2.68;72.42;98433.27;67573;1281;1016014;-61
2023/03/28 05:15:52;;;;;;;24.70;6.90;;;;;;;2.74;72.28;98436.36;67591;1281;1016576;-60
2023/03/28 05:18:55;;;;;;;22.40;6.80;;;;;;;2.74;72.64;98433.23;67587;1281;1016333;-60
2023/03/28 05:21:57;;;;;;;21.80;6.90;;;;;;;2.74;72.96;98437.71;67615;1281;1016473;-61
2023/03/28 05:25:00;;;;;;;22.30;7.20;;;;;;;2.85;72.16;98439.24;67614;1281;1016289;-60
2023/03/28 05:28:02;;;;;;;22.60;7.10;;;;;;;2.91;72.15;98440.55;67557;1281;1016396;-60
2023/03/28 05:31:07;;;;;;;26.00;8.10;;;;;;;2.93;71.97;98438.25;67655;1281;1016258;-59
2023/03/28 05:34:09;;;;;;;21.50;7.00;;;;;;;2.98;71.93;98434.27;67640;1259;1016205;-60
2023/03/28 05:37:12;;;;;;;22.90;7.00;;;;;;;2.98;72.27;98432.88;67598;1281;1016501;-60
2023/03/28 05:40:15;;;;;;;28.20;7.50;;;;;;;2.96;72.83;98434.17;67569;1281;1016070;-60
2023/03/28 05:43:18;;;;;;;20.20;6.90;;;;;;;3.04;72.57;98438.54;67615;1281;1015754;-60
2023/03/28 05:46:20;;;;;;;20.80;6.70;;;;;;;3.08;72.64;98442.38;67639;1281;1016217;-59
2023/03/28 05:49:22;;;;;;;22.80;6.70;;;;;;;3.12;72.62;98436.00;67571;1281;1019594;-60
2023/03/28 05:52:25;;;;;;;21.30;6.40;;;;;;;3.14;72.29;98439.73;67566;1281;1015865;-59
2023/03/28 05:55:27;;;;;;;25.10;6.50;;;;;;;3.16;72.37;98438.13;67588;1281;1016508;-61
2023/03/28 05:58:30;;;;;;;24.30;7.20;;;;;;;3.31;71.80;98440.86;67641;1281;1016330;-60
2023/03/28 06:01:33;;;;;;;22.40;6.50;;;;;;;3.61;70.77;98442.45;67586;1281;1016054;-60
2023/03/28 06:04:36;;;;;;;18.40;5.50;;;;;;;3.84;70.32;98446.77;67622;1281;1016497;-60
2023/03/28 06:07:39;;;;;;;18.30;5.50;;;;;;;3.88;69.79;98451.27;67599;1281;1018941;-62
2023/03/28 06:10:41;;;;;;;20.00;5.80;;;;;;;3.83;69.84;98444.58;67602;1281;1019514;-61
2023/03/28 06:13:44;;;;;;;17.20;4.90;;;;;;;3.89;69.79;98448.16;67617;1281;1016303;-59
2023/03/28 06:16:46;;;;;;;;;;;;;;;4.02;69.05;98456.41;67565;1281;1016003;-61
2023/03/28 06:19:49;;;;;;;15.20;4.60;;;;;;;4.26;67.30;98459.11;67587;1281;1016124;-60
2023/03/28 06:22:51;;;;;;;;;;;;;;;4.40;65.79;98470.46;67633;1281;1015766;-60
2023/03/28 06:25:54;;;;;;;16.70;4.30;;;;;;;4.49;65.84;98459.21;67630;1281;1016784;-60
2023/03/28 06:28:56;;;;;;;21.50;4.70;;;;;;;4.47;65.41;98464.98;67593;1281;1016418;-60
2023/03/28 06:31:59;;;;;;;15.80;4.20;;;;;;;4.43;65.35;98467.77;67574;1281;1017382;-60
2023/03/28 06:35:01;;;;;;;14.80;3.90;;;;;;;4.34;64.85;98471.38;67548;1281;1016494;-60
2023/03/28 06:38:04;;;;;;;17.70;4.20;;;;;;;4.39;64.46;98470.70;67614;1281;1015872;-60
2023/03/28 06:41:06;;;;;;;11.50;3.70;;;;;;;4.50;64.64;98474.21;67624;1281;1016226;-59
2023/03/28 06:44:09;;;;;;;13.30;4.10;;;;;;;4.77;63.59;98471.51;67551;1281;1016512;-60
2023/03/28 06:47:11;;;;;;;14.60;4.10;;;;;;;4.87;63.60;98477.88;67570;1281;1016725;-59
2023/03/28 06:50:14;;;;;;;14.60;3.90;;;;;;;4.83;63.03;98471.95;67619;1281;1016262;-60
2023/03/28 06:53:16;;;;;;;16.50;4.00;;;;;;;4.73;63.03;98484.15;67652;1281;1016390;-60
2023/03/28 06:56:19;;;;;;;13.60;3.60;;;;;;;4.62;62.57;98484.09;67590;1281;1016388;-60
2023/03/28 06:59:22;;;;;;;14.40;3.50;;;;;;;4.47;63.23;98485.92;67650;1281;1019598;-59
2023/03/28 07:02:25;;;;;;;10.40;3.10;;;;;;;4.37;61.96;98509.54;67529;1281;1016328;-60
2023/03/28 07:05:27;;;;;;;13.00;3.30;;;;;;;4.33;61.40;98514.91;67576;1281;1016208;-60
2023/03/28 07:08:31;;;;;;;14.60;3.50;;;;;;;4.46;62.15;98503.45;67629;1281;1016405;-60
2023/03/28 07:11:33;;;;;;;12.30;3.50;;;;;;;4.49;60.08;98513.71;67557;1281;1016464;-59
2023/03/28 07:14:35;;;;;;;11.00;3.00;;;;;;;4.48;59.76;98513.93;67627;1281;1017445;-60
2023/03/28 07:17:38;;;;;;;9.40;2.80;;;;;;;4.35;60.03;98516.71;67645;1281;1019087;-60
2023/03/28 07:20:40;;;;;;;9.70;2.60;;;;;;;4.40;59.69;98522.59;67611;1281;1016375;-60
2023/03/28 07:23:43;;;;;;;10.50;2.50;;;;;;;4.32;59.39;98515.81;67595;1281;1015837;-60
2023/03/28 07:26:46;;;;;;;7.00;2.10;;;;;;;4.24;58.11;98528.58;67626;1281;1016383;-59
2023/03/28 07:29:48;;;;;;;6.40;2.10;;;;;;;4.27;58.35;98524.85;67663;1281;1016330;-60
2023/03/28 07:32:51;;;;;;;7.70;2.50;;;;;;;4.19;57.98;98528.80;67656;1281;1016411;-59
2023/03/28 07:35:53;;;;;;;8.80;2.30;;;;;;;4.24;58.39;98526.00;67585;1281;1016481;-60
2023/03/28 07:38:55;;;;;;;10.80;2.60;;;;;;;4.30;58.43;98536.34;67568;1281;1016249;-59
2023/03/28 07:41:58;;;;;;;9.30;2.90;;;;;;;4.30;57.85;98536.13;67607;1281;1016441;-59
2023/03/28 07:45:00;;;;;;;6.20;2.40;;;;;;;4.32;57.39;98533.48;67605;1281;1016133;-59
2023/03/28 07:48:03;;;;;;;6.40;2.20;;;;;;;4.05;57.39;98536.41;67635;1281;1016306;-61
2023/03/28 07:51:06;;;;;;;7.20;2.40;;;;;;;4.18;57.77;98533.86;67570;1281;1016138;-60
2023/03/28 07:54:16;;;;;;;4.10;1.80;;;;;;;4.19;58.47;98539.16;67618;1281;1016428;-60
2023/03/28 07:57:18;;;;;;;6.40;2.00;;;;;;;4.13;57.99;98550.97;67601;1281;1016465;-60
2023/03/28 08:00:22;;;;;;;7.70;1.90;;;;;;;4.03;58.09;98559.36;67636;1281;1016456;-60
2023/03/28 08:03:27;;;;;;;6.20;2.10;;;;;;;4.06;58.27;98567.02;67648;1281;1018493;-60
2023/03/28 08:06:32;;;;;;;7.10;2.30;;;;;;;3.97;59.14;98573.59;67623;1281;1016514;-60
2023/03/28 08:09:35;;;;;;;4.50;2.10;;;;;;;4.02;60.33;98562.84;67607;1281;1016498;-60
2023/03/28 08:12:38;;;;;;;10.00;2.40;;;;;;;4.08;61.14;98568.14;67622;1281;1016351;-59
2023/03/28 08:15:40;;;;;;;8.30;2.40;;;;;;;4.12;61.10;98573.34;67592;1281;1016518;-60
2023/03/28 08:18:42;;;;;;;9.30;2.10;;;;;;;4.16;61.32;98578.94;67570;1281;1016372;-59
2023/03/28 08:21:45;;;;;;;9.60;2.60;;;;;;;3.98;61.78;98611.29;67640;1281;1016448;-60
2023/03/28 08:24:47;;;;;;;8.40;2.90;;;;;;;3.70;63.28;98601.41;67662;1281;1016333;-60
2023/03/28 08:27:50;;;;;;;8.20;3.10;;;;;;;3.62;63.72;98613.80;67616;1281;1016138;-60
2023/03/28 08:30:52;;;;;;;10.80;3.10;;;;;;;3.59;64.72;98616.86;67589;1281;1016455;-59
2023/03/28 08:33:56;;;;;;;8.00;2.70;;;;;;;3.53;65.05;98611.34;67625;1281;1016377;-60
2023/03/28 08:36:58;;;;;;;10.50;3.40;;;;;;;3.58;64.91;98615.48;67591;1281;1016513;-61
2023/03/28 08:40:02;;;;;;;8.20;3.20;;;;;;;3.68;64.73;98610.11;67598;1281;1016265;-61
2023/03/28 08:43:04;;;;;;;11.10;3.50;;;;;;;3.54;64.95;98623.08;67588;1281;1016443;-61
2023/03/28 08:46:07;;;;;;;13.10;3.80;;;;;;;3.38;66.05;98635.75;67554;1281;1016019;-59
2023/03/28 08:49:09;;;;;;;10.90;3.60;;;;;;;3.35;65.58;98630.64;67636;1281;1016489;-60
2023/03/28 08:52:12;;;;;;;14.50;3.60;;;;;;;3.36;65.89;98633.70;67641;1281;1016735;-59
2023/03/28 08:55:14;;;;;;;9.80;3.30;;;;;;;3.26;66.40;98651.88;67632;1281;1016513;-60
2023/03/28 08:58:20;;;;;;;7.80;3.00;;;;;;;3.09;67.39;98671.95;67604;1281;1016304;-59
2023/03/28 09:01:22;;;;;;;9.80;2.70;;;;;;;3.08;67.78;98670.80;67595;1281;1016169;-59
2023/03/28 09:04:25;;;;;;;7.70;2.20;;;;;;;2.98;68.76;98697.17;67575;1281;1018500;-60
2023/03/28 09:07:28;;;;;;;7.60;2.70;;;;;;;2.98;68.20;98684.23;67635;1281;1019083;-60
2023/03/28 09:10:30;;;;;;;9.40;2.60;;;;;;;3.23;66.67;98674.10;67589;1281;1016552;-61
2023/03/28 09:13:33;;;;;;;9.10;2.40;;;;;;;3.49;65.39;98688.25;67605;1281;1016356;-59
2023/03/28 09:16:35;;;;;;;7.70;2.10;;;;;;;3.51;64.37;98696.48;67626;1281;1016502;-60
2023/03/28 09:19:38;;;;;;;6.30;2.30;;;;;;;3.49;63.35;98716.44;67491;1283;1016329;-60
2023/03/28 09:22:40;;;;;;;8.90;2.70;;;;;;;3.47;63.36;98716.48;67479;1283;1016382;-60
2023/03/28 09:25:42;;;;;;;9.10;2.40;;;;;;;3.34;63.88;98735.59;67502;1283;1016457;-60
2023/03/28 09:28:45;;;;;;;7.20;2.40;;;;;;;3.32;64.26;98741.16;67450;1283;1019422;-60
2023/03/28 09:31:48;;;;;;;11.00;2.90;;;;;;;3.26;64.64;98745.52;67479;1283;1016314;-60
2023/03/28 09:34:50;;;;;;;10.90;2.80;;;;;;;3.49;63.73;98732.68;67482;1283;1018856;-60
2023/03/28 09:37:53;;;;;;;11.80;3.00;;;;;;;3.63;62.85;98742.95;67498;1283;1016457;-60
2023/03/28 09:40:55;;;;;;;8.60;2.80;;;;;;;3.70;61.52;98752.04;67454;1283;1016234;-60
2023/03/28 09:43:58;;;;;;;11.40;3.00;;;;;;;3.86;61.41;98754.25;67438;1283;1017270;-60
2023/03/28 09:47:00;;;;;;;11.70;3.00;;;;;;;4.01;60.23;98753.39;67464;1283;1016385;-61
2023/03/28 09:50:02;;;;;;;11.50;3.00;;;;;;;4.03;59.89;98757.98;67493;1283;1020099;-60
2023/03/28 09:53:05;;;;;;;10.00;2.80;;;;;;;4.20;59.04;98749.08;67470;1283;1016464;-60
2023/03/28 09:56:07;;;;;;;11.80;2.90;;;;;;;4.47;56.66;98751.04;67420;1283;1016450;-60
2023/03/28 09:59:10;;;;;;;10.00;2.70;;;;;;;4.85;55.40;98752.70;67461;1283;1016812;-59
2023/03/28 10:02:12;;;;;;;9.00;2.60;;;;;;;5.26;54.41;98755.09;67484;1283;1016487;-60
2023/03/28 10:05:14;;;;;;;10.60;2.80;;;;;;;5.31;52.63;98776.77;67518;1283;1016392;-60
2023/03/28 10:08:17;;;;;;;8.60;2.40;;;;;;;5.25;50.54;98787.55;67487;1283;1016493;-60
2023/03/28 10:11:19;;;;;;;10.90;3.00;;;;;;;5.45;50.57;98787.48;67461;1283;1016480;-61
2023/03/28 10:14:22;;;;;;;9.00;2.80;;;;;;;5.54;49.71;98784.30;67450;1283;1016084;-60
2023/03/28 10:17:24;;;;;;;13.10;3.00;;;;;;;5.94;50.16;98791.85;67492;1281;1018028;-60
2023/03/28 10:20:27;;;;;;;10.70;2.30;;;;;;;6.47;48.27;98813.73;67622;1281;1016482;-60
2023/03/28 10:23:29;;;;;;;;;;;;;;;6.27;46.94;98789.79;67596;1281;1016094;-60
2023/03/28 10:26:32;;;;;;;8.90;2.60;;;;;;;6.29;47.18;98794.20;67541;1281;1016102;-60
2023/03/28 10:29:35;;;;;;;7.30;2.20;;;;;;;6.64;46.36;98810.58;67619;1261;1016469;-60
2023/03/28 10:32:38;;;;;;;7.50;2.50;;;;;;;6.90;46.90;98805.19;67596;1281;1016403;-60
2023/03/28 10:35:40;;;;;;;6.80;1.90;;;;;;;6.84;45.84;98787.56;67601;1281;1016424;-60
2023/03/28 10:38:43;;;;;;;6.10;1.80;;;;;;;6.65;44.73;98805.83;67649;1281;1016350;-60
2023/03/28 10:41:45;;;;;;;7.80;2.00;;;;;;;6.94;44.18;98807.30;67589;1281;1016657;-60
2023/03/28 10:44:48;;;;;;;5.90;1.80;;;;;;;6.65;41.54;98824.20;67603;1281;1016482;-60
2023/03/28 10:48:00;;;;;;;;;;;;;;;;;;;;;
2023/03/28 10:51:07;;;;;;;5.60;1.70;;;;;;;6.60;40.96;98817.14;67560;1281;1016523;-60
2023/03/28 10:54:09;;;;;;;7.40;2.10;;;;;;;6.72;41.80;98815.75;67617;1281;1016483;-60
2023/03/28 10:57:12;;;;;;;6.00;1.60;;;;;;;6.62;42.38;98825.09;67601;1281;1016483;-60
2023/03/28 11:00:14;;;;;;;8.00;2.10;;;;;;;6.60;41.85;98830.52;67628;1281;1016382;-60
2023/03/28 11:03:17;;;;;;;8.50;1.80;;;;;;;6.40;40.82;98836.25;67597;1281;1016458;-60
2023/03/28 11:06:19;;;;;;;6.70;2.00;;;;;;;6.59;40.64;98840.80;67617;1281;1016431;-60
2023/03/28 11:09:22;;;;;;;5.20;1.40;;;;;;;6.71;39.20;98844.48;67604;1261;1016678;-60
2023/03/28 11:12:24;;;;;;;5.50;1.70;;;;;;;6.46;39.15;98850.97;67581;1281;1016311;-60
2023/03/28 11:15:27;;;;;;;7.50;1.80;;;;;;;6.38;38.36;98845.54;67596;1281;1015920;-60
2023/03/28 11:18:29;;;;;;;6.10;1.80;;;;;;;6.91;39.19;98838.52;67577;1281;1016484;-60
2023/03/28 11:21:32;;;;;;;4.30;1.50;;;;;;;7.19;39.18;98854.48;67638;1281;1016254;-60
2023/03/28 11:24:34;;;;;;;8.40;1.80;;;;;;;7.50;38.99;98856.29;67631;1281;1016459;-60
2023/03/28 11:27:37;;;;;;;7.40;1.90;;;;;;;7.46;38.15;98850.58;67579;1281;1018179;-60
2023/03/28 11:30:39;;;;;;;6.70;2.20;;;;;;;7.82;38.80;98854.06;67573;1281;1017940;-60
2023/03/28 11:33:42;;;;;;;7.80;2.10;;;;;;;7.95;37.77;98862.46;67633;1281;1017690;-60
2023/03/28 11:36:45;;;;;;;6.10;2.00;;;;;;;8.42;38.76;98845.65;67625;1281;1016447;-60
2023/03/28 11:39:47;;;;;;;8.90;1.80;;;;;;;8.21;37.66;98845.88;67566;1281;1016289;-60
2023/03/28 11:42:49;;;;;;;8.40;1.80;;;;;;;7.78;37.73;98851.64;67602;1281;1016905;-60
2023/03/28 11:45:52;;;;;;;5.10;1.80;;;;;;;7.02;37.55;98866.90;67613;1281;1016684;-60
2023/03/28 11:48:54;;;;;;;10.10;2.50;;;;;;;6.90;39.76;98859.45;67605;1281;1016490;-60
2023/03/28 11:51:57;;;;;;;10.70;2.30;;;;;;;7.03;39.98;98868.41;67627;1281;1016481;-60
2023/03/28 11:54:59;;;;;;;10.40;2.40;;;;;;;7.04;39.70;98867.86;67573;1281;1016938;-60
2023/03/28 11:58:01;;;;;;;6.60;1.70;;;;;;;6.90;38.89;98871.95;67568;1281;1016394;-60
2023/03/28 12:01:04;;;;;;;8.50;2.00;;;;;;;6.94;39.38;98863.77;67571;1281;1016365;-60
2023/03/28 12:04:07;;;;;;;5.90;1.70;;;;;;;7.00;38.33;98880.88;67579;1281;1017879;-61
2023/03/28 12:07:09;;;;;;;5.70;1.90;;;;;;;7.12;38.60;98875.48;67633;1281;1017240;-60
2023/03/28 12:10:12;;;;;;;10.50;2.30;;;;;;;6.99;38.22;98884.41;67576;1281;1016530;-60
2023/03/28 12:13:14;;;;;;;7.30;1.80;;;;;;;7.10;36.58;98881.98;67579;1281;1016404;-60
2023/03/28 12:16:17;;;;;;;4.90;1.80;;;;;;;7.62;37.54;98860.10;67637;1281;1016497;-60
2023/03/28 12:19:20;;;;;;;6.60;1.80;;;;;;;8.04;36.39;98859.23;67630;1281;1016749;-60
2023/03/28 12:22:25;;;;;;;7.30;2.10;;;;;;;8.32;35.58;98859.92;67595;1281;1016503;-60
2023/03/28 12:25:30;;;;;;;7.10;1.60;;;;;;;8.76;36.95;98845.66;67646;1281;1016517;-60
2023/03/28 12:28:32;;;;;;;6.60;1.70;;;;;;;8.54;35.11;98863.55;67589;1281;1016047;-60
2023/03/28 12:31:34;;;;;;;6.20;2.00;;;;;;;8.45;35.45;98853.35;67554;1281;1016464;-60
2023/03/28 12:34:37;;;;;;;3.90;1.50;;;;;;;8.58;35.60;98849.40;67624;1281;1016399;-60
2023/03/28 12:37:40;;;;;;;11.30;1.60;;;;;;;8.39;36.08;98844.42;67639;1281;1016446;-60
2023/03/28 12:40:42;;;;;;;4.90;1.40;;;;;;;8.22;34.84;98845.98;67593;1281;1016449;-60
2023/03/28 12:43:45;;;;;;;5.50;1.70;;;;;;;7.67;35.55;98857.55;67588;1281;1016437;-60
2023/03/28 12:46:48;;;;;;;5.80;1.70;;;;;;;7.29;36.91;98859.90;67627;1281;1016222;-60
2023/03/28 12:49:50;;;;;;;5.10;2.00;;;;;;;7.18;37.17;98859.71;67615;1281;1016112;-60
2023/03/28 12:52:53;;;;;;;5.40;1.60;;;;;;;7.28;37.64;98866.56;67586;1281;1016528;-60
2023/03/28 12:55:55;;;;;;;7.70;1.80;;;;;;;7.17;37.34;98873.18;67556;1281;1016393;-60
2023/03/28 12:58:58;;;;;;;8.40;2.20;;;;;;;7.16;38.75;98884.19;67620;1281;1018851;-60
2023/03/28 13:02:01;;;;;;;6.20;2.00;;;;;;;6.99;41.75;98906.86;67591;1281;1016859;-61
2023/03/28 13:05:03;;;;;;;7.30;2.10;;;;;;;6.59;45.44;98919.19;67599;1281;1016434;-60
2023/03/28 13:08:06;;;;;;;;;;;;;;;6.74;47.05;98909.52;67631;1281;1016414;-60
2023/03/28 13:11:08;;;;;;;8.50;2.20;;;;;;;6.82;47.39;98922.54;67648;1281;1016444;-60
2023/03/28 13:14:11;;;;;;;4.40;1.80;;;;;;;6.43;48.85;98922.29;67599;1281;1017196;-60
2023/03/28 13:17:13;;;;;;;13.50;3.00;;;;;;;5.98;49.86;98924.64;67609;1281;1016630;-60
2023/03/28 13:20:17;;;;;;;11.70;2.90;;;;;;;5.62;51.04;98935.25;65401;1281;5373702;-59
2023/03/28 13:23:20;;;;;;;9.60;2.70;;;;;;;5.29;51.93;98943.63;67587;1281;1016437;-60
2023/03/28 13:26:23;;;;;;;9.60;2.60;;;;;;;5.09;52.44;98949.38;67649;1281;1016320;-60
2023/03/28 13:29:26;;;;;;;9.40;2.40;;;;;;;4.88;54.08;98969.03;67587;1281;1015980;-60
2023/03/28 13:32:28;;;;;;;11.30;2.70;;;;;;;4.63;56.65;98953.61;67576;1281;1016926;-60
2023/03/28 13:35:31;;;;;;;13.60;3.30;;;;;;;4.61;59.17;98956.62;67645;1281;1016388;-60
2023/03/28 13:38:33;;;;;;;14.40;3.20;;;;;;;4.60;61.65;98952.16;67641;1281;1016312;-60
2023/03/28 13:41:37;;;;;;;9.30;3.20;;;;;;;4.68;62.14;98952.76;67667;1281;1016138;-60
2023/03/28 13:44:42;;;;;;;13.20;3.30;;;;;;;4.87;62.67;98955.91;67581;1281;1016402;-60
2023/03/28 13:47:44;;;;;;;15.00;3.90;;;;;;;5.09;62.43;98957.00;67595;1281;1016375;-59
2023/03/28 13:50:47;;;;;;;12.60;3.90;;;;;;;4.98;62.45;98972.67;67641;1281;1016486;-60
2023/03/28 13:53:49;;;;;;;14.30;4.00;;;;;;;4.93;62.92;98958.47;67556;1281;1016292;-60
2023/03/28 13:56:51;;;;;;;15.90;3.80;;;;;;;5.40;61.84;98955.16;67572;1260;1017623;-60
2023/03/28 13:59:54;;;;;;;13.00;3.40;;;;;;;5.86;59.05;98951.86;67567;1281;1016490;-60
2023/03/28 14:02:56;;;;;;;12.40;3.70;;;;;;;6.00;54.65;98967.66;67573;1281;1017115;-60
2023/03/28 14:05:59;;;;;;;14.40;2.90;;;;;;;5.98;53.49;98976.05;67605;1281;1018701;-60